createdAt,value
2015-12-18T00:00:34.448Z,99.9
2015-12-18T00:01:34.388Z,99.9
2015-12-18T00:02:34.343Z,99.9
2015-12-18T00:03:34.284Z,99.9
2015-12-18T00:04:34.239Z,99.9
2015-12-18T00:05:34.196Z,99.9
2015-12-18T00:06:34.136Z,99.9
2015-12-18T00:07:34.092Z,99.9
2015-12-18T00:08:34.032Z,99.9
2015-12-18T00:09:33.988Z,99.9
2015-12-18T00:10:33.944Z,99.9
2015-12-18T00:11:33.869Z,99.9
2015-12-18T00:12:33.824Z,99.9
2015-12-18T00:13:33.764Z,99.9
2015-12-18T00:14:33.721Z,99.9
2015-12-18T00:15:33.692Z,99.9
2015-12-18T00:16:33.616Z,99.9
2015-12-18T00:17:33.557Z,99.9
2015-12-18T00:18:33.513Z,99.9
2015-12-18T00:19:33.453Z,99.9
2015-12-18T00:20:33.408Z,99.9
2015-12-18T00:21:33.349Z,99.9
2015-12-18T00:22:33.305Z,99.9
2015-12-18T00:23:33.261Z,99.9
2015-12-18T00:24:33.201Z,99.9
2015-12-18T00:25:33.158Z,99.9
2015-12-18T00:26:33.097Z,99.9
2015-12-18T00:27:33.038Z,99.9
2015-12-18T00:28:32.994Z,99.9
2015-12-18T00:29:32.949Z,99.9
2015-12-18T00:30:32.887Z,99.9
2015-12-18T00:31:32.827Z,99.9
2015-12-18T00:32:32.783Z,99.9
2015-12-18T00:33:32.739Z,99.9
2015-12-18T00:34:32.679Z,99.9
2015-12-18T00:35:32.619Z,99.9
2015-12-18T00:36:32.560Z,99.9
2015-12-18T00:37:32.515Z,99.9
2015-12-18T00:38:32.471Z,99.9
2015-12-18T00:39:32.426Z,99.9
2015-12-18T00:40:32.382Z,99.9
2015-12-18T00:41:32.323Z,99.9
2015-12-18T00:42:32.262Z,99.9
2015-12-18T00:43:32.203Z,99.9
2015-12-18T00:44:32.175Z,99.9
2015-12-18T00:45:32.115Z,99.9
2015-12-18T00:46:32.055Z,99.9
2015-12-18T00:47:31.995Z,99.9
2015-12-18T00:48:31.951Z,99.9
2015-12-18T00:49:31.907Z,99.9
2015-12-18T00:50:31.848Z,99.9
2015-12-18T00:51:31.787Z,99.9
2015-12-18T00:52:31.744Z,99.9
2015-12-18T00:53:31.700Z,99.9
2015-12-18T00:54:31.640Z,99.9
2015-12-18T00:55:31.596Z,99.9
2015-12-18T00:56:31.537Z,99.9
2015-12-18T00:57:31.476Z,99.9
2015-12-18T00:58:31.432Z,99.9
2015-12-18T00:59:31.388Z,99.9
2015-12-18T01:00:31.328Z,99.9
2015-12-18T01:01:31.269Z,99.9
2015-12-18T01:02:31.225Z,99.9
2015-12-18T01:03:31.181Z,99.9
2015-12-18T01:04:31.121Z,99.9
2015-12-18T01:05:31.076Z,99.9
2015-12-18T01:06:30.267Z,99.9
2015-12-18T01:07:30.973Z,99.9
2015-12-18T01:08:30.913Z,99.9
2015-12-18T01:09:31.056Z,99.9
2015-12-18T01:10:30.809Z,99.9
2015-12-18T01:11:30.750Z,99.9
2015-12-18T01:12:30.706Z,99.9
2015-12-18T01:13:30.661Z,99.9
2015-12-18T01:14:30.601Z,99.9
2015-12-18T01:15:30.542Z,99.9
2015-12-18T01:16:30.498Z,99.9
2015-12-18T01:17:30.453Z,99.9
2015-12-18T01:18:30.393Z,99.9
2015-12-18T01:19:30.346Z,99.9
2015-12-18T01:20:30.286Z,99.9
2015-12-18T01:21:30.228Z,99.9
2015-12-18T01:22:30.183Z,99.9
2015-12-18T01:23:30.139Z,99.9
2015-12-18T01:24:30.063Z,99.9
2015-12-18T01:25:30.254Z,99.9
2015-12-18T01:26:29.975Z,99.9
2015-12-18T01:27:29.920Z,99.9
2015-12-18T01:28:29.877Z,99.9
2015-12-18T01:29:29.817Z,99.9
2015-12-18T01:30:29.772Z,99.9
2015-12-18T01:31:29.713Z,99.9
2015-12-18T01:32:29.669Z,99.9
2015-12-18T01:33:29.608Z,99.9
2015-12-18T01:34:29.565Z,99.9
2015-12-18T01:35:29.521Z,99.9
2015-12-18T01:36:29.461Z,99.9
2015-12-18T01:37:29.401Z,99.9
2015-12-18T01:38:29.358Z,99.9
2015-12-18T01:39:29.314Z,99.9
2015-12-18T01:40:29.253Z,99.9
2015-12-18T01:41:29.209Z,99.9
2015-12-18T01:42:29.149Z,99.9
2015-12-18T01:43:29.105Z,99.9
2015-12-18T01:44:29.046Z,99.9
2015-12-18T01:45:29.002Z,99.9
2015-12-18T01:46:28.942Z,99.9
2015-12-18T01:47:28.898Z,99.9
2015-12-18T01:48:28.838Z,99.9
2015-12-18T01:49:28.794Z,99.9
2015-12-18T01:50:28.750Z,99.9
2015-12-18T01:51:28.705Z,99.9
2015-12-18T01:52:28.630Z,99.9
2015-12-18T01:53:28.586Z,99.9
2015-12-18T01:54:28.527Z,99.9
2015-12-18T01:55:28.498Z,99.9
2015-12-18T01:56:28.422Z,99.9
2015-12-18T01:57:28.360Z,99.9
2015-12-18T01:58:28.315Z,99.9
2015-12-18T01:59:28.271Z,99.9
2015-12-18T02:00:28.055Z,99.9
2015-12-18T02:01:28.152Z,99.9
2015-12-18T02:02:28.107Z,99.9
2015-12-18T02:03:28.299Z,99.9
2015-12-18T02:04:28.004Z,99.9
2015-12-18T02:05:27.976Z,99.9
2015-12-18T02:06:27.916Z,99.9
2015-12-18T02:07:27.840Z,99.9
2015-12-18T02:08:27.796Z,99.9
2015-12-18T02:09:27.752Z,99.9
2015-12-18T02:10:27.692Z,99.9
2015-12-18T02:11:27.648Z,99.9
2015-12-18T02:12:27.588Z,99.9
2015-12-18T02:13:27.544Z,99.9
2015-12-18T02:14:27.501Z,99.9
2015-12-18T02:15:27.472Z,99.9
2015-12-18T02:16:27.396Z,99.9
2015-12-18T02:17:27.336Z,99.9
2015-12-18T02:18:27.307Z,99.9
2015-12-18T02:19:27.233Z,99.9
2015-12-18T02:20:27.188Z,99.9
2015-12-18T02:21:27.129Z,99.9
2015-12-18T02:22:27.085Z,99.9
2015-12-18T02:23:27.041Z,99.9
2015-12-18T02:24:27.375Z,99.9
2015-12-18T02:25:27.079Z,99.9
2015-12-18T02:26:26.911Z,99.9
2015-12-18T02:27:27.512Z,99.9
2015-12-18T02:28:26.906Z,99.9
2015-12-18T02:29:26.752Z,99.9
2015-12-18T02:30:26.676Z,99.9
2015-12-18T02:31:26.617Z,99.9
2015-12-18T02:32:26.652Z,99.9
2015-12-18T02:33:26.530Z,99.9
2015-12-18T02:34:26.485Z,99.9
2015-12-18T02:35:26.426Z,99.9
2015-12-18T02:36:26.358Z,99.9
2015-12-18T02:37:26.313Z,99.9
2015-12-18T02:38:26.284Z,99.9
2015-12-18T02:39:26.208Z,99.9
2015-12-18T02:40:26.165Z,99.9
2015-12-18T02:41:26.120Z,99.9
2015-12-18T02:42:26.089Z,99.9
2015-12-18T02:43:25.280Z,99.9
2015-12-18T02:44:25.969Z,99.9
2015-12-18T02:45:25.910Z,99.9
2015-12-18T02:46:25.866Z,99.9
2015-12-18T02:47:25.821Z,99.9
2015-12-18T02:48:25.761Z,99.9
2015-12-18T02:49:25.702Z,99.9
2015-12-18T02:50:25.658Z,99.9
2015-12-18T02:51:25.613Z,99.9
2015-12-18T02:52:25.569Z,99.9
2015-12-18T02:53:25.494Z,99.9
2015-12-18T02:54:25.450Z,99.9
2015-12-18T02:55:25.405Z,99.9
2015-12-18T02:56:25.347Z,99.9
2015-12-18T02:57:25.302Z,99.9
2015-12-18T02:58:25.258Z,99.9
2015-12-18T02:59:25.199Z,99.9
2015-12-18T03:00:25.169Z,99.9
2015-12-18T03:01:25.100Z,99.9
2015-12-18T03:02:25.040Z,99.9
2015-12-18T03:03:24.980Z,99.9
2015-12-18T03:04:24.952Z,99.9
2015-12-18T03:05:24.891Z,99.9
2015-12-18T03:06:24.832Z,99.9
2015-12-18T03:07:24.804Z,99.9
2015-12-18T03:08:24.744Z,99.9
2015-12-18T03:09:24.684Z,99.9
2015-12-18T03:10:24.625Z,99.9
2015-12-18T03:11:24.596Z,99.9
2015-12-18T03:12:24.536Z,99.9
2015-12-18T03:13:24.476Z,99.9
2015-12-18T03:14:24.433Z,99.9
2015-12-18T03:15:24.388Z,99.9
2015-12-18T03:16:24.329Z,99.9
2015-12-18T03:17:24.285Z,99.9
2015-12-18T03:18:24.224Z,99.9
2015-12-18T03:19:24.180Z,99.9
2015-12-18T03:20:24.134Z,99.9
2015-12-18T03:21:24.089Z,99.9
2015-12-18T03:22:24.014Z,99.9
2015-12-18T03:23:24.204Z,99.9
2015-12-18T03:24:23.926Z,99.9
2015-12-18T03:25:23.882Z,99.9
2015-12-18T03:26:23.821Z,99.9
2015-12-18T03:27:23.762Z,99.9
2015-12-18T03:28:23.717Z,99.9
2015-12-18T03:29:23.690Z,99.9
2015-12-18T03:30:23.615Z,99.9
2015-12-18T03:31:23.585Z,99.9
2015-12-18T03:32:23.526Z,99.9
2015-12-18T03:33:23.466Z,99.9
2015-12-18T03:34:23.406Z,99.9
2015-12-18T03:35:23.362Z,99.9
2015-12-18T03:36:23.318Z,99.9
2015-12-18T03:37:23.259Z,99.9
2015-12-18T03:38:23.198Z,99.9
2015-12-18T03:39:23.154Z,99.9
2015-12-18T03:40:23.110Z,99.9
2015-12-18T03:41:23.284Z,99.9
2015-12-18T03:42:22.991Z,99.9
2015-12-18T03:43:22.947Z,99.9
2015-12-18T03:44:22.887Z,99.9
2015-12-18T03:45:22.843Z,99.9
2015-12-18T03:46:22.784Z,99.9
2015-12-18T03:47:22.739Z,99.9
2015-12-18T03:48:22.695Z,99.9
2015-12-18T03:49:22.651Z,99.9
2015-12-18T03:50:22.576Z,99.9
2015-12-18T03:51:22.547Z,99.9
2015-12-18T03:53:22.443Z,99.9
2015-12-18T03:54:22.399Z,99.9
2015-12-18T03:55:22.323Z,99.9
2015-12-18T03:56:22.264Z,99.9
2015-12-18T03:57:22.236Z,99.9
2015-12-18T03:58:22.192Z,99.9
2015-12-18T03:59:22.131Z,99.9
2015-12-18T04:00:22.072Z,99.9
2015-12-18T04:01:22.025Z,99.9
2015-12-18T04:02:21.981Z,99.9
2015-12-18T04:03:21.920Z,99.9
2015-12-18T04:04:21.877Z,99.9
2015-12-18T04:05:22.255Z,99.9
2015-12-18T04:06:21.757Z,99.9
2015-12-18T04:07:21.760Z,99.9
2015-12-18T04:08:21.717Z,99.9
2015-12-18T04:09:21.625Z,99.9
2015-12-18T04:10:21.564Z,99.9
2015-12-18T04:11:21.739Z,99.9
2015-12-18T04:12:21.477Z,99.9
2015-12-18T04:13:21.448Z,99.9
2015-12-18T04:14:21.357Z,99.9
2015-12-18T04:15:21.298Z,99.9
2015-12-18T04:16:21.253Z,99.9
2015-12-18T04:17:21.444Z,99.9
2015-12-18T04:18:21.337Z,99.9
2015-12-18T04:19:21.122Z,99.9
2015-12-18T04:20:21.186Z,99.9
2015-12-18T04:21:21.002Z,99.9
2015-12-18T04:22:20.942Z,99.9
2015-12-18T04:23:20.898Z,99.9
2015-12-18T04:24:20.853Z,99.9
2015-12-18T04:25:20.795Z,99.9
2015-12-18T04:26:20.750Z,99.9
2015-12-18T04:27:20.722Z,99.9
2015-12-18T04:28:20.647Z,99.9
2015-12-18T04:29:20.665Z,99.9
2015-12-18T04:30:20.777Z,99.9
2015-12-18T04:31:20.498Z,99.9
2015-12-18T04:32:20.438Z,99.9
2015-12-18T04:33:20.394Z,99.9
2015-12-18T04:34:20.335Z,99.9
2015-12-18T04:35:20.525Z,99.9
2015-12-18T04:36:20.230Z,99.9
2015-12-18T04:37:20.421Z,99.9
2015-12-18T04:38:20.142Z,99.9
2015-12-18T04:39:20.113Z,99.9
2015-12-18T04:40:20.019Z,99.9
2015-12-18T04:41:19.977Z,99.9
2015-12-18T04:42:19.932Z,99.9
2015-12-18T04:43:19.903Z,99.9
2015-12-18T04:44:19.827Z,99.9
2015-12-18T04:45:19.768Z,99.9
2015-12-18T04:46:19.725Z,99.9
2015-12-18T04:47:19.664Z,99.9
2015-12-18T04:48:19.730Z,99.9
2015-12-18T04:49:19.560Z,99.9
2015-12-18T04:50:19.532Z,99.9
2015-12-18T04:51:19.472Z,99.9
2015-12-18T04:52:19.413Z,99.9
2015-12-18T04:53:19.368Z,99.9
2015-12-18T04:54:19.308Z,99.9
2015-12-18T04:55:19.296Z,99.9
2015-12-18T04:56:19.205Z,99.9
2015-12-18T04:57:19.160Z,99.9
2015-12-18T04:58:19.116Z,99.9
2015-12-18T04:59:19.057Z,99.9
2015-12-18T05:00:18.997Z,99.9
2015-12-18T05:01:19.047Z,99.9
2015-12-18T05:02:18.909Z,99.9
2015-12-18T05:05:16.418Z,99.9
2015-12-18T05:05:56.152Z,99.9
2015-12-18T05:06:56.091Z,99.9
2015-12-18T05:07:56.048Z,99.9
2015-12-18T05:08:55.988Z,99.9
2015-12-18T05:09:55.944Z,99.9
2015-12-18T05:10:55.884Z,99.9
2015-12-18T05:11:55.840Z,99.9
2015-12-18T05:12:55.796Z,99.9
2015-12-18T05:13:55.736Z,99.9
2015-12-18T05:14:55.692Z,99.9
2015-12-18T05:15:55.867Z,99.9
2015-12-18T05:16:55.588Z,99.9
2015-12-18T05:17:55.543Z,99.9
2015-12-18T05:18:55.485Z,99.9
2015-12-18T05:19:55.424Z,99.9
2015-12-18T05:20:55.380Z,99.9
2015-12-18T05:21:55.321Z,99.9
2015-12-18T05:22:55.276Z,99.9
2015-12-18T05:23:55.217Z,99.9
2015-12-18T05:24:55.173Z,99.9
2015-12-18T05:25:55.129Z,99.9
2015-12-18T05:26:55.069Z,99.9
2015-12-18T05:27:55.025Z,99.9
2015-12-18T05:28:54.981Z,99.9
2015-12-18T05:29:54.921Z,99.9
2015-12-18T05:30:54.862Z,99.9
2015-12-18T05:31:54.833Z,99.9
2015-12-18T05:32:54.773Z,99.9
2015-12-18T05:33:54.713Z,99.9
2015-12-18T05:34:54.654Z,99.9
2015-12-18T05:35:54.610Z,99.9
2015-12-18T05:36:54.566Z,99.9
2015-12-18T05:37:54.506Z,99.9
2015-12-18T05:38:54.446Z,99.9
2015-12-18T05:39:54.636Z,99.9
2015-12-18T05:40:54.592Z,99.9
2015-12-18T05:41:54.295Z,99.9
2015-12-18T05:42:54.251Z,99.9
2015-12-18T05:43:54.425Z,99.9
2015-12-18T05:44:54.147Z,99.9
2015-12-18T05:45:53.259Z,99.9
2015-12-18T05:46:54.042Z,99.9
2015-12-18T05:47:54.234Z,99.9
2015-12-18T05:48:54.173Z,99.9
2015-12-18T05:49:53.895Z,99.9
2015-12-18T05:50:53.835Z,99.9
2015-12-18T05:51:53.791Z,99.9
2015-12-18T05:52:53.747Z,99.9
2015-12-18T05:53:53.687Z,99.9
2015-12-18T05:54:53.643Z,99.9
2015-12-18T05:55:53.584Z,99.9
2015-12-18T05:56:53.540Z,99.9
2015-12-18T05:57:53.479Z,99.9
2015-12-18T05:58:53.436Z,99.9
2015-12-18T05:59:53.376Z,99.9
2015-12-18T06:00:53.331Z,99.9
2015-12-18T06:01:53.272Z,99.9
2015-12-18T06:02:53.228Z,99.9
2015-12-18T06:03:53.183Z,99.9
2015-12-18T06:04:53.123Z,99.9
2015-12-18T06:05:53.080Z,99.9
2015-12-18T06:06:53.020Z,99.9
2015-12-18T06:07:52.975Z,99.9
2015-12-18T06:08:52.931Z,99.9
2015-12-18T06:09:52.856Z,99.9
2015-12-18T06:10:52.812Z,99.9
2015-12-18T06:11:53.018Z,99.9
2015-12-18T06:12:52.739Z,99.9
2015-12-18T06:13:52.665Z,99.9
2015-12-18T06:14:52.620Z,99.9
2015-12-18T06:15:52.561Z,99.9
2015-12-18T06:16:52.751Z,99.9
2015-12-18T06:17:52.454Z,99.9
2015-12-18T06:18:52.396Z,99.9
2015-12-18T06:19:52.323Z,99.9
2015-12-18T06:20:52.265Z,99.9
2015-12-18T06:21:52.208Z,99.9
2015-12-18T06:22:52.136Z,99.9
2015-12-18T06:23:52.073Z,99.9
2015-12-18T06:24:52.025Z,99.9
2015-12-18T06:25:51.975Z,99.9
2015-12-18T06:26:51.927Z,99.9
2015-12-18T06:27:51.861Z,99.9
2015-12-18T06:28:51.798Z,99.9
2015-12-18T06:29:51.767Z,99.9
2015-12-18T06:30:51.706Z,99.9
2015-12-18T06:31:51.660Z,99.9
2015-12-18T06:32:51.833Z,99.9
2015-12-18T06:33:51.554Z,99.9
2015-12-18T06:34:51.493Z,99.9
2015-12-18T06:35:51.448Z,99.9
2015-12-18T06:36:51.403Z,99.9
2015-12-18T06:37:51.343Z,99.9
2015-12-18T06:38:51.282Z,99.9
2015-12-18T06:39:51.473Z,99.9
2015-12-18T06:40:51.194Z,99.9
2015-12-18T06:41:51.133Z,99.9
2015-12-18T06:42:51.088Z,99.9
2015-12-18T06:43:51.029Z,99.9
2015-12-18T06:44:50.985Z,99.9
2015-12-18T06:45:50.941Z,99.9
2015-12-18T06:46:50.881Z,99.9
2015-12-18T06:47:50.822Z,99.9
2015-12-18T06:48:50.777Z,99.9
2015-12-18T06:49:50.968Z,99.9
2015-12-18T06:50:50.688Z,99.9
2015-12-18T06:51:50.645Z,99.9
2015-12-18T06:52:50.570Z,99.9
2015-12-18T06:53:50.525Z,99.9
2015-12-18T06:54:50.466Z,99.9
2015-12-18T06:55:50.438Z,99.9
2015-12-18T06:56:50.378Z,99.9
2015-12-18T06:57:50.318Z,99.9
2015-12-18T06:58:50.274Z,99.9
2015-12-18T06:59:50.214Z,99.9
2015-12-18T07:00:50.170Z,99.9
2015-12-18T07:01:50.126Z,99.9
2015-12-18T07:02:50.066Z,99.9
2015-12-18T07:03:50.021Z,99.9
2015-12-18T07:04:49.962Z,99.9
2015-12-18T07:05:49.915Z,99.9
2015-12-18T07:06:49.871Z,99.9
2015-12-18T07:07:49.826Z,99.9
2015-12-18T07:08:49.752Z,99.9
2015-12-18T07:09:49.707Z,99.9
2015-12-18T07:10:49.679Z,99.9
2015-12-18T07:11:49.604Z,99.9
2015-12-18T07:12:49.560Z,99.9
2015-12-18T07:13:49.515Z,99.9
2015-12-18T07:14:49.487Z,99.9
2015-12-18T07:15:49.630Z,99.9
2015-12-18T07:16:49.351Z,99.9
2015-12-18T07:17:49.307Z,99.9
2015-12-18T07:18:49.248Z,99.9
2015-12-18T07:19:49.250Z,99.9
2015-12-18T07:20:49.144Z,99.9
2015-12-18T07:21:49.099Z,99.9
2015-12-18T07:22:49.040Z,99.9
2015-12-18T07:23:48.996Z,99.9
2015-12-18T07:24:48.952Z,99.9
2015-12-18T07:25:48.893Z,99.9
2015-12-18T07:26:48.848Z,99.9
2015-12-18T07:27:48.788Z,99.9
2015-12-18T07:28:48.744Z,99.9
2015-12-18T07:29:48.918Z,99.9
2015-12-18T07:30:48.640Z,99.9
2015-12-18T07:31:48.581Z,99.9
2015-12-18T07:32:48.770Z,99.9
2015-12-18T07:33:48.492Z,99.9
2015-12-18T07:34:48.432Z,99.9
2015-12-18T07:35:48.373Z,99.9
2015-12-18T07:36:48.328Z,99.9
2015-12-18T07:37:48.284Z,99.9
2015-12-18T07:38:48.225Z,99.9
2015-12-18T07:39:48.181Z,99.9
2015-12-18T07:40:48.371Z,99.9
2015-12-18T07:41:48.092Z,99.9
2015-12-18T07:42:48.032Z,99.9
2015-12-18T07:43:47.973Z,99.9
2015-12-18T07:44:47.928Z,99.9
2015-12-18T07:45:47.869Z,99.9
2015-12-18T07:46:47.825Z,99.9
2015-12-18T07:47:47.778Z,99.9
2015-12-18T07:48:47.764Z,99.9
2015-12-18T07:49:47.658Z,99.9
2015-12-18T07:50:47.614Z,99.9
2015-12-18T07:51:47.570Z,99.9
2015-12-18T07:52:47.573Z,99.9
2015-12-18T07:53:47.466Z,99.9
2015-12-18T07:54:47.404Z,99.9
2015-12-18T07:55:47.360Z,99.9
2015-12-18T07:56:47.301Z,99.9
2015-12-18T07:57:47.257Z,99.9
2015-12-18T07:58:47.212Z,99.9
2015-12-18T07:59:47.387Z,99.9
2015-12-18T08:00:47.108Z,99.9
2015-12-18T08:01:47.049Z,99.9
2015-12-18T08:02:47.004Z,99.9
2015-12-18T08:03:46.945Z,99.9
2015-12-18T08:04:46.901Z,99.9
2015-12-18T08:05:46.841Z,99.9
2015-12-18T08:06:46.797Z,99.9
2015-12-18T08:07:46.753Z,99.9
2015-12-18T08:08:46.693Z,99.9
2015-12-18T08:09:46.648Z,99.9
2015-12-18T08:10:46.589Z,99.9
2015-12-18T08:11:46.529Z,99.9
2015-12-18T08:12:46.485Z,99.9
2015-12-18T08:13:46.442Z,99.9
2015-12-18T08:14:46.381Z,99.9
2015-12-18T08:15:46.338Z,99.9
2015-12-18T08:16:46.293Z,99.9
2015-12-18T08:17:46.234Z,99.9
2015-12-18T08:18:46.174Z,99.9
2015-12-18T08:19:46.131Z,99.9
2015-12-18T08:20:46.070Z,99.9
2015-12-18T08:21:46.042Z,99.9
2015-12-18T08:22:45.998Z,99.9
2015-12-18T08:23:45.923Z,99.9
2015-12-18T08:24:45.909Z,99.9
2015-12-18T08:25:45.817Z,99.9
2015-12-18T08:26:45.774Z,99.9
2015-12-18T08:27:45.727Z,99.9
2015-12-18T08:28:45.652Z,99.9
2015-12-18T08:29:45.607Z,99.9
2015-12-18T08:30:45.563Z,99.9
2015-12-18T08:31:45.520Z,99.9
2015-12-18T08:32:45.459Z,99.9
2015-12-18T08:33:45.399Z,99.9
2015-12-18T08:34:45.356Z,99.9
2015-12-18T08:35:45.296Z,99.9
2015-12-18T08:36:45.253Z,99.9
2015-12-18T08:37:45.192Z,99.9
2015-12-18T08:38:45.133Z,99.9
2015-12-18T08:39:45.089Z,99.9
2015-12-18T08:40:45.044Z,99.9
2015-12-18T08:41:45.000Z,99.9
2015-12-18T08:42:45.159Z,99.9
2015-12-18T08:43:44.881Z,99.9
2015-12-18T08:44:44.853Z,99.9
2015-12-18T08:45:44.792Z,99.9
2015-12-18T08:46:44.732Z,99.9
2015-12-18T08:47:44.688Z,99.9
2015-12-18T08:48:44.629Z,99.9
2015-12-18T08:49:44.569Z,99.9
2015-12-18T08:50:44.525Z,99.9
2015-12-18T08:51:44.465Z,99.9
2015-12-18T08:52:44.655Z,99.9
2015-12-18T08:53:44.377Z,99.9
2015-12-18T08:54:44.317Z,99.9
2015-12-18T08:55:44.258Z,99.9
2015-12-18T08:56:44.213Z,99.9
2015-12-18T08:57:44.153Z,99.9
2015-12-18T08:58:44.094Z,99.9
2015-12-18T08:59:44.049Z,99.9
2015-12-18T09:00:44.005Z,99.9
2015-12-18T09:01:44.055Z,99.9
2015-12-18T09:02:43.902Z,99.9
2015-12-18T09:03:43.858Z,99.9
2015-12-18T09:04:43.814Z,99.9
2015-12-18T09:05:43.002Z,99.9
2015-12-18T09:06:43.692Z,99.9
2015-12-18T09:07:43.632Z,99.9
2015-12-18T09:08:43.587Z,99.9
2015-12-18T09:09:43.528Z,99.9
2015-12-18T09:10:43.483Z,99.9
2015-12-18T09:11:43.424Z,99.9
2015-12-18T09:12:43.379Z,99.9
2015-12-18T09:13:43.319Z,99.9
2015-12-18T09:14:43.260Z,99.9
2015-12-18T09:15:43.216Z,99.9
2015-12-18T09:16:43.171Z,99.9
2015-12-18T09:17:43.112Z,99.9
2015-12-18T09:18:43.068Z,99.9
2015-12-18T09:19:43.242Z,99.9
2015-12-18T09:20:42.963Z,99.9
2015-12-18T09:21:42.905Z,99.9
2015-12-18T09:22:42.861Z,99.9
2015-12-18T09:23:42.801Z,99.9
2015-12-18T09:24:42.757Z,99.9
2015-12-18T09:25:42.696Z,99.9
2015-12-18T09:26:42.652Z,99.9
2015-12-18T09:27:42.593Z,99.9
2015-12-18T09:28:42.548Z,99.9
2015-12-18T09:29:42.488Z,99.9
2015-12-18T09:30:42.445Z,99.9
2015-12-18T09:31:42.401Z,99.9
2015-12-18T09:32:42.356Z,99.9
2015-12-18T09:33:42.282Z,99.9
2015-12-18T09:34:42.252Z,99.9
2015-12-18T09:35:42.177Z,99.9
2015-12-18T09:36:42.132Z,99.9
2015-12-18T09:37:42.090Z,99.9
2015-12-18T09:38:42.030Z,99.9
2015-12-18T09:39:41.970Z,99.9
2015-12-18T09:40:41.926Z,99.9
2015-12-18T09:41:41.866Z,99.9
2015-12-18T09:42:41.821Z,99.9
2015-12-18T09:43:41.762Z,99.9
2015-12-18T09:44:41.717Z,99.9
2015-12-18T09:45:41.657Z,99.9
2015-12-18T09:46:41.614Z,99.9
2015-12-18T09:47:41.567Z,99.9
2015-12-18T09:48:41.506Z,99.9
2015-12-18T09:49:41.681Z,99.9
2015-12-18T09:50:41.403Z,99.9
2015-12-18T09:51:41.343Z,99.9
2015-12-18T09:52:41.299Z,99.9
2015-12-18T09:53:41.256Z,99.9
2015-12-18T09:54:41.196Z,99.9
2015-12-18T09:55:41.136Z,99.9
2015-12-18T09:56:41.092Z,99.9
2015-12-18T09:57:41.048Z,99.9
2015-12-18T09:58:40.987Z,99.9
2015-12-18T09:59:40.928Z,99.9
2015-12-18T10:00:41.118Z,99.9
2015-12-18T10:01:40.824Z,99.9
2015-12-18T10:02:40.781Z,99.9
2015-12-18T10:03:40.737Z,99.9
2015-12-18T10:04:40.677Z,99.9
2015-12-18T10:05:40.617Z,99.9
2015-12-18T10:06:40.556Z,99.9
2015-12-18T10:07:40.512Z,99.9
2015-12-18T10:08:40.469Z,99.9
2015-12-18T10:09:40.409Z,99.9
2015-12-18T10:10:40.365Z,99.9
2015-12-18T10:11:40.306Z,99.9
2015-12-18T10:12:40.261Z,99.9
2015-12-18T10:13:40.217Z,99.9
2015-12-18T10:14:40.157Z,99.9
2015-12-18T10:15:40.331Z,99.9
2015-12-18T10:16:40.054Z,99.9
2015-12-18T10:17:40.009Z,99.9
2015-12-18T10:18:39.950Z,99.9
2015-12-18T10:19:39.921Z,99.9
2015-12-18T10:20:39.861Z,99.9
2015-12-18T10:21:39.801Z,99.9
2015-12-18T10:22:39.742Z,99.9
2015-12-18T10:23:39.713Z,99.9
2015-12-18T10:24:39.634Z,99.9
2015-12-18T10:25:39.592Z,99.9
2015-12-18T10:26:39.531Z,99.9
2015-12-18T10:27:39.487Z,99.9
2015-12-18T10:28:39.443Z,99.9
2015-12-18T10:29:39.383Z,99.9
2015-12-18T10:30:39.339Z,99.9
2015-12-18T10:31:39.295Z,99.9
2015-12-18T10:32:39.235Z,99.9
2015-12-18T10:33:39.175Z,99.9
2015-12-18T10:34:39.131Z,99.9
2015-12-18T10:35:39.087Z,99.9
2015-12-18T10:36:39.028Z,99.9
2015-12-18T10:37:38.983Z,99.9
2015-12-18T10:38:38.923Z,99.9
2015-12-18T10:39:38.894Z,99.9
2015-12-18T10:40:38.819Z,99.9
2015-12-18T10:41:38.791Z,99.3
2015-12-18T10:42:38.747Z,96.8
2015-12-18T10:43:38.906Z,94.5
2015-12-18T10:44:38.628Z,93.7
2015-12-18T10:45:38.568Z,94.9
2015-12-18T10:46:38.540Z,95.5
2015-12-18T10:47:38.464Z,96.9
2015-12-18T10:48:38.420Z,97.4
2015-12-18T10:49:38.361Z,98.6
2015-12-18T10:50:38.331Z,99.1
2015-12-18T10:51:38.272Z,98.7
2015-12-18T10:52:38.228Z,98.1
2015-12-18T10:53:38.403Z,98.9
2015-12-18T10:54:38.125Z,97.3
2015-12-18T10:55:38.111Z,98.2
2015-12-18T10:56:38.020Z,97.8
2015-12-18T10:57:37.961Z,98.9
2015-12-18T10:58:37.916Z,98.8
2015-12-18T10:59:37.856Z,99.1
2015-12-18T11:00:37.819Z,99.3
2015-12-18T11:01:37.994Z,99.1
2015-12-18T11:02:37.716Z,99.8
2015-12-18T11:03:37.672Z,99.8
2015-12-18T11:04:37.597Z,99.5
2015-12-18T11:05:37.553Z,99.8
2015-12-18T11:06:37.508Z,99.6
2015-12-18T11:07:37.446Z,99.4
2015-12-18T11:08:37.401Z,99.6
2015-12-18T11:09:37.341Z,99.1
2015-12-18T11:10:37.282Z,99
2015-12-18T11:11:37.238Z,99.3
2015-12-18T11:12:37.194Z,99.2
2015-12-18T11:13:37.135Z,98.5
2015-12-18T11:14:37.075Z,98.8
2015-12-18T11:15:37.031Z,98.7
2015-12-18T11:16:36.971Z,98.6
2015-12-18T11:17:36.927Z,99.4
2015-12-18T11:18:36.882Z,98.9
2015-12-18T11:19:36.822Z,99.1
2015-12-18T11:20:36.779Z,98.7
2015-12-18T11:21:36.734Z,98.6
2015-12-18T11:22:36.910Z,98.2
2015-12-18T11:23:36.616Z,96.7
2015-12-18T11:24:36.571Z,96.3
2015-12-18T11:25:36.527Z,91.4
2015-12-18T11:26:36.467Z,90.6
2015-12-18T11:27:36.438Z,92.7
2015-12-18T11:28:36.379Z,94.3
2015-12-18T11:29:36.554Z,94.6
2015-12-18T11:30:36.275Z,95.1
2015-12-18T11:31:36.230Z,95.7
2015-12-18T11:32:36.172Z,96.5
2015-12-18T11:33:36.143Z,95.8
2015-12-18T11:34:36.068Z,96.7
2015-12-18T11:35:36.023Z,96.7
2015-12-18T11:36:35.963Z,96.2
2015-12-18T11:37:35.935Z,96.9
2015-12-18T11:38:36.110Z,96.6
2015-12-18T11:39:36.049Z,96.6
2015-12-18T11:40:35.771Z,97.3
2015-12-18T11:41:35.727Z,97.4
2015-12-18T11:42:35.668Z,97
2015-12-18T11:43:35.624Z,96.5
2015-12-18T11:44:35.563Z,96.5
2015-12-18T11:45:35.519Z,97
2015-12-18T11:46:35.459Z,96.4
2015-12-18T11:47:35.396Z,96.5
2015-12-18T11:48:35.353Z,95.8
2015-12-18T11:49:35.746Z,96.8
2015-12-18T11:50:35.248Z,97.2
2015-12-18T11:51:35.205Z,96.2
2015-12-18T11:52:35.146Z,96.7
2015-12-18T11:53:35.085Z,96.5
2015-12-18T11:54:35.056Z,96.4
2015-12-18T11:55:34.998Z,95.9
2015-12-18T11:56:34.937Z,96.1
2015-12-18T11:57:35.128Z,95.1
2015-12-18T11:58:34.834Z,94.4
2015-12-18T11:59:34.789Z,94.6
2015-12-18T12:00:34.746Z,94.4
2015-12-18T12:01:34.685Z,94.8
2015-12-18T12:02:34.626Z,95.9
2015-12-18T12:03:34.581Z,95.4
2015-12-18T12:04:34.537Z,95.8
2015-12-18T12:05:34.478Z,95.4
2015-12-18T12:06:34.434Z,95.1
2015-12-18T12:07:34.374Z,95.4
2015-12-18T12:08:34.329Z,93.6
2015-12-18T12:09:34.286Z,94.6
2015-12-18T12:10:34.210Z,94.6
2015-12-18T12:11:34.166Z,94.6
2015-12-18T12:12:34.357Z,95.2
2015-12-18T12:13:34.062Z,94.7
2015-12-18T12:14:34.018Z,95.3
2015-12-18T12:15:33.959Z,95.5
2015-12-18T12:16:33.898Z,95.5
2015-12-18T12:17:33.855Z,95.5
2015-12-18T12:18:33.811Z,94.9
2015-12-18T12:19:33.907Z,95.2
2015-12-18T12:20:33.692Z,95.4
2015-12-18T12:21:33.647Z,95.4
2015-12-18T12:22:33.587Z,95.7
2015-12-18T12:23:33.543Z,95.7
2015-12-18T12:24:33.483Z,95.7
2015-12-18T12:25:33.673Z,96.2
2015-12-18T12:26:33.392Z,96.2
2015-12-18T12:27:33.333Z,96
2015-12-18T12:28:33.289Z,95.4
2015-12-18T12:29:33.229Z,96.3
2015-12-18T12:30:33.169Z,96.6
2015-12-18T12:31:33.140Z,96.1
2015-12-18T12:32:33.081Z,96.6
2015-12-18T12:33:33.068Z,97
2015-12-18T12:34:32.977Z,96
2015-12-18T12:35:32.917Z,95.7
2015-12-18T12:36:32.873Z,95.7
2015-12-18T12:37:32.813Z,96
2015-12-18T12:38:32.769Z,94.8
2015-12-18T12:39:32.709Z,95.1
2015-12-18T12:40:32.665Z,94.1
2015-12-18T12:41:32.621Z,95
2015-12-18T12:42:32.561Z,94.8
2015-12-18T12:43:32.502Z,95.6
2015-12-18T12:44:32.458Z,95.5
2015-12-18T12:45:32.397Z,94.3
2015-12-18T12:46:32.353Z,94.9
2015-12-18T12:47:32.294Z,94.9
2015-12-18T12:48:32.249Z,94.4
2015-12-18T12:49:32.189Z,95.4
2015-12-18T12:50:32.147Z,95
2015-12-18T12:51:32.102Z,95.2
2015-12-18T12:52:32.042Z,95.1
2015-12-18T12:53:31.982Z,95.8
2015-12-18T12:54:31.953Z,95.3
2015-12-18T12:55:31.894Z,94.9
2015-12-18T12:56:31.834Z,94.9
2015-12-18T12:57:31.790Z,94.9
2015-12-18T12:58:31.730Z,94.8
2015-12-18T12:59:31.671Z,95
2015-12-18T13:00:31.627Z,95
2015-12-18T13:01:31.582Z,94.9
2015-12-18T13:02:31.522Z,95.2
2015-12-18T13:03:31.478Z,95.3
2015-12-18T13:04:31.419Z,95.3
2015-12-18T13:05:31.359Z,94.9
2015-12-18T13:06:31.316Z,95.1
2015-12-18T13:07:31.271Z,95.1
2015-12-18T13:08:31.211Z,95.3
2015-12-18T13:09:31.167Z,95.4
2015-12-18T13:10:31.123Z,95.2
2015-12-18T13:11:31.066Z,94.8
2015-12-18T13:12:31.005Z,95.2
2015-12-18T13:13:30.960Z,94.8
2015-12-18T13:14:30.901Z,95
2015-12-18T13:15:30.857Z,95.1
2015-12-18T13:16:30.797Z,95.6
2015-12-18T13:17:30.738Z,94.8
2015-12-18T13:18:30.693Z,95.1
2015-12-18T13:19:30.649Z,95.4
2015-12-18T13:20:30.590Z,95.1
2015-12-18T13:21:30.545Z,95.3